createdAt,value
2023-01-15T00:00:28.349Z,4.28
2023-01-15T00:05:33.292Z,4.50
2023-01-15T00:10:37.136Z,4.43
2023-01-15T00:15:40.845Z,4.45
2023-01-15T00:20:45.897Z,4.35
2023-01-15T00:26:07.373Z,4.70
2023-01-15T00:31:11.008Z,4.68
2023-01-15T00:36:15.947Z,4.35
2023-01-15T00:41:19.954Z,4.20
2023-01-15T00:46:25.493Z,4.38
2023-01-15T00:51:31.266Z,4.28
2023-01-15T00:56:34.847Z,4.13
2023-01-15T01:01:39.095Z,3.80
2023-01-15T01:06:44.125Z,3.90
2023-01-15T01:11:50.234Z,3.60
2023-01-15T01:16:53.792Z,3.92
2023-01-15T01:21:58.737Z,3.60
2023-01-15T01:27:02.236Z,3.80
2023-01-15T01:32:06.924Z,3.55
2023-01-15T01:37:12.814Z,3.53
2023-01-15T01:42:18.837Z,3.58
2023-01-15T01:47:27.004Z,3.70
2023-01-15T01:52:40.062Z,3.58
2023-01-15T01:57:44.275Z,3.28
2023-01-15T02:02:50.225Z,3.30
2023-01-15T02:07:55.631Z,3.50
2023-01-15T02:13:08.322Z,3.25
2023-01-15T02:18:20.282Z,3.10
2023-01-15T02:24:01.884Z,3.55
2023-01-15T02:29:14.701Z,3.03
2023-01-15T02:34:25.544Z,3.50
2023-01-15T02:39:31.927Z,3.03
2023-01-15T02:44:43.319Z,3.50
2023-01-15T02:49:51.065Z,2.75
2023-01-15T02:55:02.013Z,3.03
2023-01-15T03:00:13.433Z,2.83
2023-01-15T03:05:24.813Z,2.90
2023-01-15T03:10:39.641Z,2.60
2023-01-15T03:16:12.106Z,2.53
2023-01-15T03:21:24.427Z,2.80
2023-01-15T03:26:30.302Z,2.50
2023-01-15T03:31:37.739Z,2.80
2023-01-15T03:36:41.725Z,2.50
2023-01-15T03:42:04.467Z,2.25
2023-01-15T03:47:28.736Z,2.72
2023-01-15T03:52:45.334Z,2.40
2023-01-15T03:57:55.222Z,2.30
2023-01-15T04:03:04.804Z,2.30
2023-01-15T04:08:11.021Z,2.10
2023-01-15T04:13:14.793Z,2.03
2023-01-15T04:18:22.745Z,2.30
2023-01-15T04:23:26.391Z,2.20
2023-01-15T04:28:29.971Z,2.30
2023-01-15T04:33:36.850Z,2.20
2023-01-15T04:38:40.321Z,2.20
2023-01-15T04:44:01.491Z,2.03
2023-01-15T04:49:08.980Z,1.90
2023-01-15T04:54:16.559Z,1.80
2023-01-15T04:59:23.555Z,1.85
2023-01-15T05:04:28.593Z,1.90
2023-01-15T05:09:32.375Z,1.92
2023-01-15T05:14:35.969Z,1.77
2023-01-15T05:19:41.409Z,1.52
2023-01-15T05:24:45.015Z,1.73
2023-01-15T05:29:48.737Z,1.50
2023-01-15T05:34:53.646Z,1.70
2023-01-15T05:39:57.242Z,1.90
2023-01-15T05:45:00.927Z,1.80
2023-01-15T05:50:07.973Z,1.75
2023-01-15T05:55:11.658Z,1.60
2023-01-15T06:00:17.247Z,1.63
2023-01-15T06:05:22.230Z,1.48
2023-01-15T06:10:25.725Z,1.33
2023-01-15T06:15:29.245Z,1.50
2023-01-15T06:20:36.712Z,1.50
2023-01-15T06:25:40.371Z,1.40
2023-01-15T06:30:43.900Z,1.23
2023-01-15T06:35:48.925Z,1.40
2023-01-15T06:40:52.421Z,1.38
2023-01-15T06:46:21.984Z,1.30
2023-01-15T06:51:27.079Z,1.40
2023-01-15T06:56:30.644Z,1.38
2023-01-15T07:01:34.203Z,1.40
2023-01-15T07:06:39.463Z,1.30
2023-01-15T07:11:50.251Z,1.30
2023-01-15T07:16:54.228Z,1.40
2023-01-15T07:21:59.467Z,1.27
2023-01-15T07:27:03.545Z,1.25
2023-01-15T07:32:07.798Z,1.25
2023-01-15T07:37:12.983Z,1.30
2023-01-15T07:42:34.110Z,1.10
2023-01-15T07:47:55.177Z,1.08
2023-01-15T07:53:00.183Z,1.10
2023-01-15T07:58:05.038Z,1.20
2023-01-15T08:03:09.304Z,1.20
2023-01-15T08:08:17.990Z,0.98
2023-01-15T08:13:39.069Z,1.20
2023-01-15T08:18:42.709Z,1.00
2023-01-15T08:23:47.677Z,1.30
2023-01-15T08:28:51.225Z,1.20
2023-01-15T08:33:54.771Z,1.02
2023-01-15T08:38:59.702Z,1.15
2023-01-15T08:44:03.493Z,1.13
2023-01-15T08:49:07.060Z,1.20
2023-01-15T08:54:12.187Z,1.20
2023-01-15T08:59:15.947Z,0.90
2023-01-15T09:04:22.592Z,1.00
2023-01-15T09:09:27.485Z,1.02
2023-01-15T09:14:56.917Z,0.90
2023-01-15T09:19:55.185Z,0.90
2023-01-15T09:25:00.649Z,1.00
2023-01-15T09:30:04.885Z,0.98
2023-01-15T09:35:10.173Z,0.90
2023-01-15T09:40:49.201Z,1.00
2023-01-15T09:46:00.339Z,0.80
2023-01-15T09:51:20.118Z,0.85
2023-01-15T09:56:29.732Z,0.70
2023-01-15T10:01:34.983Z,0.98
2023-01-15T10:06:46.098Z,0.88
2023-01-15T10:12:18.079Z,0.90
2023-01-15T10:17:28.523Z,0.73
2023-01-15T10:22:59.499Z,0.80
2023-01-15T10:28:20.841Z,0.80
2023-01-15T10:33:56.268Z,0.82
2023-01-15T10:39:07.478Z,0.80
2023-01-15T10:44:19.508Z,0.63
2023-01-15T10:49:23.071Z,0.80
2023-01-15T10:54:33.293Z,0.80
2023-01-15T10:59:47.619Z,0.73
2023-01-15T11:04:51.273Z,0.70
2023-01-15T11:09:55.143Z,0.90
2023-01-15T11:15:17.477Z,0.95
2023-01-15T11:20:31.992Z,0.90
2023-01-15T11:25:35.697Z,0.75
2023-01-15T11:30:41.887Z,0.70
2023-01-15T11:35:57.248Z,0.90
2023-01-15T11:41:05.402Z,0.80
2023-01-15T11:46:48.994Z,0.75
2023-01-15T11:51:52.603Z,0.82
2023-01-15T11:56:57.598Z,1.00
2023-01-15T12:02:07.546Z,1.00
2023-01-15T12:07:16.003Z,0.90
2023-01-15T12:12:31.082Z,1.10
2023-01-15T12:18:23.392Z,1.40
2023-01-15T12:23:54.373Z,1.67
2023-01-15T12:29:10.585Z,1.60
2023-01-15T12:34:24.268Z,1.65
2023-01-15T12:39:33.738Z,1.35
2023-01-15T12:45:12.485Z,1.50
2023-01-15T12:50:34.263Z,1.50
2023-01-15T12:55:43.248Z,1.48
2023-01-15T13:00:47.773Z,1.60
2023-01-15T13:05:57.807Z,1.25
2023-01-15T13:11:01.669Z,1.30
2023-01-15T13:16:18.035Z,1.42
2023-01-15T13:21:26.000Z,1.25
2023-01-15T13:27:23.294Z,1.40
2023-01-15T13:32:30.459Z,1.02
2023-01-15T13:37:43.432Z,1.37
2023-01-15T13:42:49.948Z,1.20
2023-01-15T13:47:57.847Z,1.33
2023-01-15T13:58:29.329Z,1.25
2023-01-15T14:03:36.293Z,1.10
2023-01-15T14:08:44.838Z,1.10
2023-01-15T14:14:25.990Z,1.20
2023-01-15T14:20:00.129Z,1.20
2023-01-15T14:25:41.401Z,1.20
2023-01-15T14:31:22.846Z,1.00
2023-01-15T14:36:39.014Z,1.08
2023-01-15T14:41:59.066Z,0.90
2023-01-15T14:47:06.619Z,0.90
2023-01-15T14:52:10.848Z,0.93
2023-01-15T14:57:17.556Z,1.00
2023-01-15T15:02:31.553Z,0.90
2023-01-15T15:07:42.196Z,0.85
2023-01-15T15:12:56.467Z,1.10
2023-01-15T15:18:07.738Z,1.00
2023-01-15T15:23:20.055Z,0.90
2023-01-15T15:28:25.208Z,1.10
2023-01-15T15:33:38.604Z,0.95
2023-01-15T15:38:46.072Z,1.08
2023-01-15T15:44:14.672Z,1.00
2023-01-15T15:49:20.074Z,0.73
2023-01-15T15:54:27.873Z,0.95
2023-01-15T15:59:36.582Z,0.80
2023-01-15T16:04:46.767Z,0.90
2023-01-15T16:09:53.945Z,1.10
2023-01-15T16:15:00.214Z,2.10
2023-01-15T16:20:03.886Z,2.30
2023-01-15T16:25:24.356Z,1.65
2023-01-15T16:30:33.990Z,1.50
2023-01-15T16:35:38.488Z,1.52
2023-01-15T16:40:47.943Z,1.30
2023-01-15T16:46:06.028Z,1.55
2023-01-15T16:51:35.751Z,1.63
2023-01-15T16:56:55.335Z,1.50
2023-01-15T17:02:12.224Z,1.30
2023-01-15T17:07:23.915Z,1.35
2023-01-15T17:12:34.391Z,1.40
2023-01-15T17:17:39.527Z,1.20
2023-01-15T17:22:47.007Z,1.27
2023-01-15T17:27:50.711Z,1.20
2023-01-15T17:32:55.721Z,1.55
2023-01-15T17:37:59.411Z,1.50
2023-01-15T17:43:03.859Z,1.50
2023-01-15T17:48:09.915Z,1.45
2023-01-15T17:53:13.555Z,1.27
2023-01-15T17:58:35.962Z,1.42
2023-01-15T18:04:09.545Z,1.30
2023-01-15T18:09:14.075Z,1.30
2023-01-15T18:14:17.792Z,1.17
2023-01-15T18:19:22.781Z,1.35
2023-01-15T18:24:26.414Z,1.30
2023-01-15T18:29:30.188Z,1.08
2023-01-15T18:34:35.279Z,1.20
2023-01-15T18:39:38.838Z,1.17
2023-01-15T18:44:59.829Z,1.20
2023-01-15T18:50:04.888Z,1.20
2023-01-15T18:55:09.691Z,1.42
2023-01-15T19:00:14.772Z,0.90
2023-01-15T19:05:20.923Z,1.15
2023-01-15T19:10:24.745Z,1.20
2023-01-15T19:15:48.269Z,1.60
2023-01-15T19:20:53.422Z,1.77
2023-01-15T19:25:56.982Z,1.40
2023-01-15T19:31:18.175Z,2.15
2023-01-15T19:36:23.497Z,1.90
2023-01-15T19:41:44.958Z,2.70
2023-01-15T19:47:06.350Z,2.50
2023-01-15T19:52:29.312Z,2.40
2023-01-15T19:57:38.363Z,2.80
2023-01-15T20:02:42.442Z,2.85
2023-01-15T20:07:50.327Z,3.10
2023-01-15T20:18:17.012Z,3.30
2023-01-15T20:23:22.405Z,3.33
2023-01-15T20:28:26.093Z,3.92
2023-01-15T20:33:29.830Z,3.70
2023-01-15T20:38:34.845Z,3.80
2023-01-15T20:43:56.211Z,3.70
2023-01-15T20:49:17.231Z,3.83
2023-01-15T20:54:26.495Z,3.80
2023-01-15T20:59:30.382Z,3.75
2023-01-15T21:04:34.539Z,3.85
2023-01-15T21:09:39.730Z,3.88
2023-01-15T21:14:46.231Z,4.20
2023-01-15T21:19:49.834Z,3.80
2023-01-15T21:24:54.774Z,3.95
2023-01-15T21:29:58.326Z,4.30
2023-01-15T21:35:01.981Z,4.00
2023-01-15T21:40:09.956Z,3.58
2023-01-15T21:45:13.599Z,3.78
2023-01-15T21:50:20.442Z,3.92
2023-01-15T21:55:25.748Z,3.88
2023-01-15T22:00:29.471Z,3.67
2023-01-15T22:05:34.560Z,3.75
2023-01-15T22:10:39.951Z,3.65
2023-01-15T22:15:43.854Z,3.75
2023-01-15T22:20:58.290Z,3.78
2023-01-15T22:26:03.689Z,3.80
2023-01-15T22:31:08.225Z,3.88
2023-01-15T22:36:13.974Z,3.90
2023-01-15T22:41:40.531Z,3.90
2023-01-15T22:46:45.003Z,3.92
2023-01-15T22:51:49.063Z,3.60
2023-01-15T22:56:54.139Z,3.80
2023-01-15T23:01:57.880Z,3.83
2023-01-15T23:07:02.012Z,4.18
2023-01-15T23:12:07.607Z,6.15
2023-01-15T23:17:11.187Z,7.60
2023-01-15T23:22:14.888Z,7.38
2023-01-15T23:27:20.114Z,7.40
2023-01-15T23:32:23.878Z,7.40
2023-01-15T23:37:27.769Z,7.25
2023-01-15T23:42:50.447Z,7.10
2023-01-15T23:47:56.362Z,6.78
2023-01-15T23:53:01.579Z,7.50
2023-01-15T23:58:06.503Z,7.25
